Latest Weather Observations for Rottnest Island

IDW60901

Issued at 6:21 pm WST Saturday 1 October 2016 (issued every 10 minutes, with the page automatically refreshed every 10 minutes)

About weather observations | Map of Perth area stations | Latest observations for Perth area | Other Formats
Station Details ID: 009193 Name: ROTTNEST ISLAND Lat: -32.01 Lon: 115.50 Height: 43.1 m
Data from the previous 72 hours. | See also: Recent months at Rottnest Island
Date/Time
WST
Temp
°C
App
Temp
°C
Dew
Point
°C
Rel
Hum
%
Delta-T
°C
Wind Press
QNH
hPa
Press
MSL
hPa
Rain since
9am
mm
Dir  Spd
km/h
Gust
km/h
Spd
kts
Gust
kts
01/06:00pm 10.5 -1.0 6.3 75 2.0 SW 56 74 30 40 1008.4 1008.3 2.2
01/05:32pm 12.1 0.7 4.8 61 3.3 WSW 54 72 29 39 1008.1 1008.0 2.0
01/05:30pm 12.2 0.9 5.6 64 3.1 WSW 54 70 29 38 1008.1 1008.0 2.0
01/05:00pm 11.5 -0.3 5.6 67 2.7 WSW 57 76 31 41 1007.3 1007.3 2.0
01/04:30pm 12.0 0.3 6.3 68 2.7 WSW 57 76 31 41 1007.5 1007.5 2.0
01/04:16pm 11.7 1.1 6.8 72 2.3 WSW 52 74 28 40 1007.5 1007.5 2.0
01/04:00pm 10.7 -0.9 9.6 93 0.6 SW 61 85 33 46 1007.3 1007.3 2.0
01/03:51pm 9.3 -4.3 7.9 91 0.7 SW 69 95 37 51 1007.2 1007.2 2.0
01/03:48pm 9.7 -2.4 7.8 88 0.9 WSW 61 95 33 51 1007.2 1007.2 1.8
01/03:47pm 10.1 -1.2 8.0 87 1.0 WSW 57 95 31 51 1007.2 1007.2 1.6
01/03:38pm 13.4 2.9 5.6 59 3.7 WSW 50 69 27 37 1006.8 1006.8 0.6
01/03:30pm 13.3 1.3 4.5 55 4.0 SW 57 72 31 39 1006.7 1006.7 0.6
01/03:00pm 14.0 2.3 5.4 56 4.1 WSW 56 76 30 41 1006.7 1006.7 0.6
01/02:33pm 11.4 -3.0 4.2 61 3.2 WSW 69 95 37 51 1006.8 1006.8 0.6
01/02:30pm 11.9 -3.4 4.2 59 3.5 WSW 74 95 40 51 1006.8 1006.8 0.6
01/02:27pm 12.5 -1.4 4.7 59 3.6 SW 67 95 36 51 1006.5 1006.5 0.6
01/02:22pm 13.4 0.6 4.8 56 4.0 WSW 61 87 33 47 1006.3 1006.3 0.6
01/02:00pm 14.6 3.1 4.6 51 4.7 WSW 54 72 29 39 1006.3 1006.3 0.6
01/01:30pm 11.8 0.0 7.3 74 2.2 SW 59 82 32 44 1006.2 1006.2 0.6
01/01:00pm 13.8 2.0 5.7 58 3.8 SW 57 82 31 44 1006.1 1006.1 0.4
01/12:30pm 13.9 1.1 4.5 53 4.3 SW 61 83 33 45 1005.9 1005.9 0.4
01/12:15pm 12.1 -1.6 7.4 73 2.3 SW 69 91 37 49 1005.6 1005.6 0.4
01/12:11pm 12.4 -0.6 7.3 71 2.5 SW 65 89 35 48 1005.2 1005.2 0.4
01/12:04pm 13.3 1.2 6.2 62 3.4 SW 59 78 32 42 1005.3 1005.3 0.4
01/12:00pm 13.4 1.0 6.7 64 3.2 SW 61 78 33 42 1005.3 1005.3 0.4
01/11:40am 13.9 1.5 6.5 61 3.6 WSW 61 80 33 43 1005.6 1005.6 0.4
01/11:30am 13.7 1.4 7.0 64 3.3 WSW 61 76 33 41 1005.5 1005.5 0.4
01/11:00am 9.7 -2.2 7.0 83 1.3 WSW 59 96 32 52 1006.0 1006.0 0.2
01/10:30am 14.6 2.1 4.3 50 4.8 WSW 59 80 32 43 1005.4 1005.4 0.0
01/10:00am 15.8 3.9 5.4 50 5.0 WSW 57 80 31 43 1005.4 1005.4 0.0
01/09:30am 15.5 3.6 6.8 56 4.3 WSW 59 78 32 42 1005.0 1005.0 0.0
01/09:00am 15.5 3.8 7.8 60 3.9 WSW 59 82 32 44 1004.7 1004.6 2.6
01/08:30am 15.3 3.0 7.1 58 4.0 WSW 61 83 33 45 1004.2 1004.1 2.6
01/08:14am 14.5 2.7 7.5 63 3.5 WSW 59 83 32 45 1003.9 1003.8 2.6
01/08:11am 14.5 3.4 8.0 65 3.2 WSW 56 83 30 45 1003.8 1003.7 2.6
01/08:00am 14.2 5.0 9.6 74 2.4 WSW 48 70 26 38 1003.7 1003.6 2.4
01/07:30am 16.5 5.7 7.7 56 4.4 W 54 72 29 39 1003.2 1003.2 2.2
01/07:00am 16.1 5.3 9.1 63 3.6 W 56 76 30 41 1002.9 1002.9 2.2
01/06:30am 16.1 4.9 8.3 60 4.0 W 57 78 31 42 1002.4 1002.4 2.2
01/06:00am 16.3 4.7 9.7 65 3.5 WNW 61 83 33 45 1002.1 1002.1 2.2
01/05:33am 15.6 4.6 10.6 72 2.6 WNW 59 78 32 42 1002.1 1002.1 2.2
01/05:30am 15.6 4.2 10.6 72 2.6 WNW 61 78 33 42 1002.2 1002.2 2.2
01/05:00am 16.1 5.1 9.3 64 3.5 WNW 57 76 31 41 1002.2 1002.2 2.2
01/04:36am 16.1 6.1 10.8 71 2.8 NW 54 72 29 39 1002.2 1002.2 2.2
01/04:30am 16.1 5.5 10.8 71 2.8 NW 57 70 31 38 1001.8 1001.8 2.2
01/04:02am 15.8 6.4 10.1 69 3.0 NW 50 69 27 37 1001.8 1001.8 2.2
01/04:00am 15.7 5.9 10.0 69 3.0 NW 52 69 28 37 1001.6 1001.6 2.2
01/03:30am 15.7 5.5 8.7 63 3.6 WNW 52 65 28 35 1002.5 1002.5 2.2
01/03:15am 15.9 7.0 9.1 64 3.5 WNW 46 65 25 35 1002.8 1002.8 2.2
01/03:00am 15.9 6.4 8.4 61 3.8 WNW 48 61 26 33 1002.9 1002.9 2.2
01/02:30am 15.3 7.0 9.9 70 2.8 WNW 44 56 24 30 1003.6 1003.6 2.2
01/02:00am 15.9 7.5 9.6 66 3.3 WNW 44 56 24 30 1003.8 1003.8 2.2
01/01:30am 15.3 7.7 9.0 66 3.2 WNW 39 52 21 28 1004.0 1004.0 2.2
01/01:00am 15.4 8.2 9.3 67 3.2 WNW 37 48 20 26 1004.3 1004.3 2.2
01/12:30am 15.6 8.4 9.3 66 3.3 WNW 37 50 20 27 1004.6 1004.6 2.2
01/12:00am 15.4 8.9 9.1 66 3.2 WNW 33 43 18 23 1004.8 1004.8 2.2
 
Date/Time
WST
Temp
°C
App
Temp
°C
Dew
Point
°C
Rel
Hum
%
Delta-T
°C
Wind Press
QNH
hPa
Press
MSL
hPa
Rain since
9am
mm
Dir  Spd
km/h
Gust
km/h
Spd
kts
Gust
kts
30/11:30pm 15.6 8.5 9.5 67 3.2 WNW 37 46 20 25 1005.2 1005.2 2.2
30/11:00pm 15.4 9.3 10.4 72 2.6 WNW 33 41 18 22 1005.4 1005.4 2.2
30/10:30pm 15.2 9.3 9.1 67 3.1 W 30 39 16 21 1005.7 1005.7 2.2
30/10:00pm 15.1 10.0 9.2 68 3.0 W 26 39 14 21 1006.3 1006.3 2.2
30/09:30pm 15.1 9.6 9.0 67 3.1 W 28 37 15 20 1006.7 1006.7 2.2
30/09:00pm 15.0 9.1 8.9 67 3.1 W 30 44 16 24 1006.9 1006.9 2.2
30/08:30pm 15.2 10.6 11.0 76 2.2 W 26 39 14 21 1006.9 1006.9 2.2
30/08:00pm 14.7 11.1 11.8 83 1.6 W 22 32 12 17 1006.9 1006.9 2.2
30/07:30pm 14.8 10.2 12.3 85 1.4 WSW 28 41 15 22 1006.9 1006.9 2.2
30/07:00pm 14.4 11.0 12.4 88 1.1 W 22 32 12 17 1006.7 1006.7 2.2
30/06:30pm 13.6 8.9 12.0 90 0.9 WSW 28 35 15 19 1006.9 1006.9 1.8
30/06:13pm 14.1 8.5 11.4 84 1.4 W 32 46 17 25 1006.9 1006.9 1.8
30/06:00pm 14.0 7.7 12.4 90 0.9 WNW 37 48 20 26 1006.8 1006.8 1.8
30/05:42pm 15.1 9.7 10.9 76 2.2 W 30 57 16 31 1006.8 1006.8 1.0
30/05:30pm 15.4 11.7 11.4 77 2.2 W 22 30 12 16 1006.8 1006.8 1.0
30/05:00pm 15.1 8.8 10.9 76 2.2 WSW 35 54 19 29 1006.8 1006.8 1.0
30/04:58pm 15.7 9.7 10.7 72 2.7 WSW 33 54 18 29 1006.7 1006.7 1.0
30/04:30pm 16.0 10.2 10.7 71 2.8 W 32 43 17 23 1006.7 1006.7 1.0
30/04:00pm 16.8 11.5 11.3 70 3.0 W 30 43 16 23 1006.6 1006.6 1.0
30/03:45pm 15.5 9.3 11.3 76 2.3 W 35 56 19 30 1006.8 1006.8 1.0
30/03:30pm 15.5 10.7 13.0 85 1.4 W 30 44 16 24 1006.9 1006.9 1.0
30/03:00pm 14.1 6.8 11.4 84 1.4 W 41 61 22 33 1007.2 1007.2 0.8
30/02:30pm 17.0 10.7 11.1 68 3.2 W 35 54 19 29 1007.0 1007.0 0.6
30/02:22pm 16.1 9.7 10.6 70 2.9 W 35 54 19 29 1007.1 1007.1 0.6
30/02:00pm 17.1 10.4 9.5 61 4.0 WNW 35 44 19 24 1007.0 1007.0 0.6
30/01:30pm 18.0 11.8 9.9 59 4.3 W 33 46 18 25 1007.2 1007.2 0.6
30/01:00pm 17.6 10.4 9.0 57 4.5 W 37 50 20 27 1007.5 1007.5 0.6
30/12:30pm 17.6 10.9 10.9 65 3.6 W 37 48 20 26 1007.5 1007.5 0.6
30/12:00pm 16.3 11.1 13.4 83 1.6 W 33 44 18 24 1007.7 1007.7 0.6
30/11:30am 14.3 7.8 13.0 92 0.7 WNW 39 54 21 29 1008.1 1008.0 0.6
30/11:00am 14.4 7.0 12.4 88 1.1 WNW 43 54 23 29 1008.3 1008.2 0.0
30/10:30am 15.1 7.0 9.9 71 2.7 NW 43 56 23 30 1008.4 1008.3 0.0
30/10:00am 17.2 9.2 10.3 64 3.7 NW 43 52 23 28 1008.1 1008.0 0.0
30/09:30am 17.0 9.4 9.2 60 4.1 NW 39 52 21 28 1008.3 1008.2 0.0
30/09:00am 16.9 9.7 9.3 61 4.0 NW 37 44 20 24 1008.3 1008.2 0.0
30/08:30am 16.5 9.7 9.2 62 3.8 NW 35 44 19 24 1008.2 1008.1 0.0
30/08:00am 16.2 9.8 8.4 60 4.0 WNW 32 46 17 25 1008.5 1008.4 0.0
30/07:30am 15.8 9.6 9.2 65 3.4 WNW 32 39 17 21 1008.7 1008.6 0.0
30/07:00am 14.9 8.4 8.2 64 3.4 WNW 32 39 17 21 1008.5 1008.4 0.0
30/06:30am 14.6 8.7 7.6 63 3.5 WNW 28 35 15 19 1008.5 1008.4 0.0
30/06:00am 14.0 7.4 5.9 58 3.9 WNW 30 39 16 21 1008.5 1008.4 0.0
30/05:30am 14.2 8.0 6.1 58 3.9 WNW 28 37 15 20 1008.8 1008.7 0.0
30/05:00am 14.1 8.8 4.9 54 4.3 WNW 22 30 12 16 1009.2 1009.1 0.0
30/04:30am 14.0 8.0 5.4 56 4.1 W 26 37 14 20 1009.4 1009.3 0.0
30/04:00am 14.2 8.0 6.1 58 3.9 W 28 37 15 20 1009.7 1009.6 0.0
30/03:30am 14.0 8.4 7.3 64 3.3 WNW 26 35 14 19 1009.8 1009.7 0.0
30/03:00am 14.0 9.8 8.2 68 2.9 W 20 26 11 14 1010.3 1010.2 0.0
30/02:30am 13.6 9.4 8.2 70 2.7 WSW 20 28 11 15 1010.4 1010.3 0.0
30/02:00am 13.5 9.7 7.5 67 2.9 W 17 22 9 12 1010.8 1010.7 0.0
30/01:30am 12.9 9.2 7.8 71 2.5 WSW 17 20 9 11 1011.0 1010.9 0.0
30/01:00am 12.9 9.2 8.0 72 2.4 W 17 20 9 11 1011.2 1011.1 0.0
30/12:30am 12.8 10.0 8.5 75 2.1 SW 13 17 7 9 1011.7 1011.6 0.0
30/12:00am 12.8 9.2 8.3 74 2.2 SW 17 20 9 11 1011.9 1011.8 0.0
 
Date/Time
WST
Temp
°C
App
Temp
°C
Dew
Point
°C
Rel
Hum
%
Delta-T
°C
Wind Press
QNH
hPa
Press
MSL
hPa
Rain since
9am
mm
Dir  Spd
km/h
Gust
km/h
Spd
kts
Gust
kts
29/11:30pm 12.8 9.4 7.7 71 2.5 WSW 15 17 8 9 1012.4 1012.3 0.0
29/11:00pm 12.9 9.9 7.8 71 2.5 WSW 13 17 7 9 1012.5 1012.4 0.0
29/10:30pm 12.7 9.2 7.4 70 2.6 WSW 15 20 8 11 1013.1 1013.0 0.0
29/10:00pm 12.7 9.6 7.2 69 2.7 WSW 13 15 7 8 1013.7 1013.6 0.0
29/09:30pm 12.8 9.2 6.8 67 2.9 WSW 15 20 8 11 1014.0 1013.9 0.0
29/09:00pm 12.9 8.9 6.5 65 3.1 SW 17 20 9 11 1014.4 1014.3 0.0
29/08:30pm 13.1 8.7 6.7 65 3.1 SW 19 22 10 12 1014.6 1014.5 0.0
29/08:00pm 13.2 8.6 6.5 64 3.2 SW 20 28 11 15 1014.7 1014.6 0.0
29/07:30pm 12.8 8.5 5.2 60 3.5 WSW 17 20 9 11 1014.6 1014.5 0.0
29/07:00pm 13.1 8.3 4.8 57 3.8 WSW 19 22 10 12 1014.6 1014.5 0.0
29/06:30pm 13.0 8.6 4.7 57 3.8 WSW 17 20 9 11 1014.8 1014.7 0.0
29/06:00pm 14.0 10.0 5.1 55 4.2 WSW 15 20 8 11 1014.7 1014.6 0.0
29/05:30pm 14.8 9.8 4.8 51 4.7 WSW 20 26 11 14 1014.7 1014.6 0.0
29/05:00pm 15.2 10.4 5.7 53 4.5 WSW 20 24 11 13 1014.9 1014.8 0.0
29/04:30pm 15.2 10.2 4.6 49 5.0 SW 20 26 11 14 1014.9 1014.8 0.0
29/04:00pm 15.9 11.0 5.2 49 5.1 WSW 20 26 11 14 1015.2 1015.1 0.0
29/03:30pm 15.3 10.3 4.7 49 5.0 SW 20 26 11 14 1015.5 1015.4 0.0
29/03:00pm 15.4 10.8 3.9 46 5.3 SW 17 24 9 13 1015.9 1015.8 0.0
29/02:30pm 15.8 11.4 4.5 47 5.3 SW 17 24 9 13 1016.5 1016.4 0.0
29/02:00pm 15.5 10.6 3.9 46 5.3 W 19 22 10 12 1017.6 1017.5 0.0
29/01:30pm 15.7 11.0 3.2 43 5.7 NW 17 26 9 14 1018.1 1018.0 0.0
29/01:00pm 15.4 10.9 2.2 41 5.9 N 15 22 8 12 1018.5 1018.4 0.0
29/12:30pm 16.0 11.8 3.8 44 5.6 N 15 22 8 12 1019.0 1018.9 0.0
29/12:00pm 14.9 10.0 4.3 49 4.9 NE 19 24 10 13 1019.3 1019.2 0.0
29/11:30am 15.2 10.0 3.7 46 5.3 NNE 20 28 11 15 1019.9 1019.9 0.0
29/11:00am 14.8 9.5 5.1 52 4.6 NE 22 30 12 16 1020.3 1020.3 0.0
29/10:30am 13.8 7.9 4.1 52 4.4 NNE 24 30 13 16 1020.9 1020.9 0.0
29/10:00am 13.1 7.2 4.0 54 4.1 NNE 24 30 13 16 1021.4 1021.4 0.0
29/09:30am 13.1 7.8 5.0 58 3.8 NE 22 32 12 17 1021.8 1021.8 0.0
29/09:00am 12.0 5.3 3.8 57 3.7 NE 28 37 15 20 1021.5 1021.5 0.0
29/08:30am 11.3 4.6 3.6 59 3.4 NE 28 37 15 20 1021.4 1021.4 0.0
29/08:00am 10.6 3.5 3.6 62 3.1 NE 30 41 16 22 1021.2 1021.2 0.0
29/07:30am 9.9 3.1 3.0 62 3.0 NE 28 43 15 23 1021.2 1021.2 0.0
29/07:00am 9.6 2.8 3.1 64 2.8 NE 28 37 15 20 1021.4 1021.4 0.0
29/06:30am 9.2 2.8 3.2 66 2.6 NE 26 37 14 20 1021.5 1021.5 0.0
29/06:00am 9.0 3.0 3.2 67 2.5 NE 24 37 13 20 1021.4 1021.4 0.0
29/05:30am 8.9 2.1 3.1 67 2.5 NE 28 35 15 19 1021.5 1021.5 0.0
29/05:00am 8.9 2.9 3.3 68 2.4 ENE 24 35 13 19 1021.6 1021.6 0.0
29/04:30am 8.8 2.4 3.4 69 2.3 ENE 26 37 14 20 1021.5 1021.5 0.0
29/04:00am 9.1 3.1 3.1 66 2.6 ENE 24 32 13 17 1021.3 1021.3 0.0
29/03:30am 9.7 3.7 3.4 65 2.7 ENE 24 32 13 17 1021.3 1021.3 0.0
29/03:00am 10.0 4.8 3.5 64 2.8 ENE 20 32 11 17 1021.2 1021.2 0.0
29/02:30am 10.4 5.3 3.9 64 2.9 ENE 20 26 11 14 1021.4 1021.4 0.0
29/02:00am 10.6 6.2 4.5 66 2.7 ENE 17 24 9 13 1021.4 1021.4 0.0
29/01:30am 10.8 6.3 4.3 64 2.9 E 17 20 9 11 1021.7 1021.7 0.0
29/01:00am 11.3 7.6 4.5 63 3.1 E 13 17 7 9 1022.2 1022.2 0.0
29/12:30am 11.5 8.1 5.8 68 2.7 ESE 13 17 7 9 1022.4 1022.4 0.0
29/12:00am 11.7 8.4 6.2 69 2.6 ESE 13 15 7 8 1022.5 1022.5 0.0
 
Date/Time
WST
Temp
°C
App
Temp
°C
Dew
Point
°C
Rel
Hum
%
Delta-T
°C
Wind Press
QNH
hPa
Press
MSL
hPa
Rain since
9am
mm
Dir  Spd
km/h
Gust
km/h
Spd
kts
Gust
kts
28/11:30pm 12.0 8.7 6.3 68 2.7 ESE 13 17 7 9 1022.7 1022.7 0.0
28/11:00pm 12.5 8.7 5.7 63 3.2 SE 15 24 8 13 1022.6 1022.6 0.0
28/10:30pm 13.1 7.9 5.3 59 3.6 SE 22 30 12 16 1022.6 1022.6 0.0
28/10:00pm 13.2 7.6 5.6 60 3.6 SSE 24 32 13 17 1022.7 1022.7 0.0
28/09:30pm 13.0 7.5 5.9 62 3.4 SSE 24 32 13 17 1022.8 1022.8 0.0
28/09:00pm 12.8 7.7 5.9 63 3.2 SSE 22 28 12 15 1022.9 1022.9 0.0
28/08:30pm 12.6 6.7 5.8 63 3.2 S 26 33 14 18 1022.8 1022.8 0.0
28/08:00pm 12.6 7.0 5.3 61 3.4 S 24 30 13 16 1022.8 1022.8 0.0
28/07:30pm 12.5 6.9 5.2 61 3.4 S 24 32 13 17 1022.9 1022.9 0.0
28/07:00pm 12.3 6.6 4.8 60 3.4 S 24 30 13 16 1022.9 1022.9 0.0
28/06:30pm 12.1 6.0 4.8 61 3.3 S 26 35 14 19 1022.9 1022.9 0.0

Latest Capital City Observations: Canberra | Sydney | Melbourne | Brisbane | Adelaide | Perth | Hobart | Darwin

Other Formats:

Comma delimited format used in spreadsheet applications
http://www.bom.gov.au/fwo/IDW60901/IDW60901.94602.axf

JavaScript Object Notation format (JSON) in row-major order
http://www.bom.gov.au/fwo/IDW60901/IDW60901.94602.json